createdAt,value
2019-02-05T00:02:20.395Z,25.17
2019-02-05T00:04:52.327Z,28.70
2019-02-05T00:07:24.290Z,25.10
2019-02-05T00:09:56.273Z,30.40
2019-02-05T00:12:31.089Z,30.32
2019-02-05T00:15:04.699Z,26.45
2019-02-05T00:17:39.911Z,25.37
2019-02-05T00:20:21.754Z,25.90
2019-02-05T00:22:57.662Z,25.05
2019-02-05T00:25:33.611Z,21.95
2019-02-05T00:28:06.205Z,25.60
2019-02-05T00:30:44.315Z,27.77
2019-02-05T00:33:17.150Z,26.95
2019-02-05T00:35:49.584Z,24.07
2019-02-05T00:38:23.634Z,22.13
2019-02-05T00:40:55.788Z,22.32
2019-02-05T00:43:30.536Z,23.02
2019-02-05T00:46:02.983Z,21.60
2019-02-05T00:48:34.688Z,30.20
2019-02-05T00:51:09.720Z,24.23
2019-02-05T00:53:42.075Z,30.88
2019-02-05T00:56:17.966Z,26.48
2019-02-05T00:58:54.130Z,29.15
2019-02-05T01:01:26.302Z,34.05
2019-02-05T01:03:59.300Z,30.25
2019-02-05T01:06:31.233Z,28.52
2019-02-05T01:09:04.612Z,24.60
2019-02-05T01:11:40.151Z,23.15
2019-02-05T01:14:14.755Z,23.05
2019-02-05T01:16:46.283Z,27.05
2019-02-05T01:19:17.923Z,28.30
2019-02-05T01:21:50.125Z,26.27
2019-02-05T01:24:23.408Z,24.10
2019-02-05T01:26:55.811Z,24.23
2019-02-05T01:29:28.901Z,33.20
2019-02-05T01:32:02.116Z,24.67
2019-02-05T01:34:36.940Z,24.80
2019-02-05T01:37:10.557Z,26.07
2019-02-05T01:39:42.091Z,29.75
2019-02-05T01:42:13.938Z,25.88
2019-02-05T01:44:47.401Z,25.97
2019-02-05T01:47:20.639Z,25.95
2019-02-05T01:49:52.126Z,28.55
2019-02-05T01:52:23.551Z,24.43
2019-02-05T01:54:55.038Z,27.95
2019-02-05T01:57:26.454Z,27.67
2019-02-05T01:59:58.297Z,23.87
2019-02-05T02:02:29.851Z,25.90
2019-02-05T02:05:01.568Z,29.10
2019-02-05T02:07:33.628Z,24.15
2019-02-05T02:10:07.804Z,32.15
2019-02-05T02:12:39.478Z,23.90
2019-02-05T02:15:12.186Z,23.27
2019-02-05T02:17:44.570Z,22.80
2019-02-05T02:20:17.966Z,35.73
2019-02-05T02:22:49.723Z,28.70
2019-02-05T02:25:22.939Z,26.52
2019-02-05T02:27:54.941Z,26.68
2019-02-05T02:30:30.558Z,28.67
2019-02-05T02:33:02.259Z,35.33
2019-02-05T02:35:33.855Z,27.48
2019-02-05T02:38:05.494Z,31.42
2019-02-05T02:40:37.002Z,29.32
2019-02-05T02:43:08.512Z,31.80
2019-02-05T02:45:41.353Z,25.97
2019-02-05T02:48:13.153Z,28.98
2019-02-05T02:50:44.571Z,30.43
2019-02-05T02:53:16.081Z,30.95
2019-02-05T02:55:47.548Z,32.55
2019-02-05T02:58:19.013Z,30.17
2019-02-05T03:00:50.827Z,26.93
2019-02-05T03:03:22.456Z,29.40
2019-02-05T03:05:53.963Z,38.05
2019-02-05T03:08:25.481Z,30.92
2019-02-05T03:10:57.148Z,25.77
2019-02-05T03:13:30.661Z,28.42
2019-02-05T03:16:02.115Z,28.67
2019-02-05T03:18:33.641Z,31.57
2019-02-05T03:21:05.178Z,28.90
2019-02-05T03:23:36.632Z,29.32
2019-02-05T03:26:09.373Z,28.80
2019-02-05T03:28:40.988Z,36.30
2019-02-05T03:33:56.319Z,31.23
2019-02-05T03:36:27.781Z,30.27
2019-02-05T03:38:59.250Z,33.48
2019-02-05T03:41:30.866Z,26.87
2019-02-05T03:44:02.416Z,34.18
2019-02-05T03:46:33.970Z,28.87
2019-02-05T03:49:05.703Z,32.48
2019-02-05T03:52:07.192Z,29.95
2019-02-05T03:55:19.901Z,27.60
2019-02-05T03:58:54.757Z,30.40
2019-02-05T04:02:19.239Z,27.00
2019-02-05T04:05:33.470Z,36.30
2019-02-05T04:09:02.784Z,28.95
2019-02-05T04:12:48.312Z,30.82
2019-02-05T04:16:23.673Z,31.48
2019-02-05T04:19:39.587Z,32.55
2019-02-05T04:23:00.299Z,32.83
2019-02-05T04:26:33.782Z,27.93
2019-02-05T04:29:46.275Z,31.02
2019-02-05T04:33:01.825Z,32.30
2019-02-05T04:36:22.044Z,35.38
2019-02-05T04:39:37.146Z,30.57
2019-02-05T04:42:44.303Z,34.55
2019-02-05T04:46:24.949Z,31.55
2019-02-05T04:49:42.856Z,33.58
2019-02-05T04:53:15.429Z,31.57
2019-02-05T04:56:22.081Z,36.10
2019-02-05T04:59:58.705Z,28.45
2019-02-05T05:03:21.201Z,31.95
2019-02-05T05:06:43.429Z,32.90
2019-02-05T05:09:49.736Z,37.80
2019-02-05T05:12:21.188Z,38.45
2019-02-05T05:14:52.609Z,29.85
2019-02-05T05:17:24.054Z,30.17
2019-02-05T05:19:55.629Z,42.65
2019-02-05T05:22:27.101Z,32.90
2019-02-05T05:24:59.763Z,36.80
2019-02-05T05:27:31.432Z,36.63
2019-02-05T05:30:02.905Z,43.10
2019-02-05T05:32:35.384Z,43.80
2019-02-05T05:35:08.843Z,36.93
2019-02-05T05:37:41.210Z,34.18
2019-02-05T05:40:13.165Z,35.43
2019-02-05T05:42:44.629Z,42.78
2019-02-05T05:45:16.599Z,36.65
2019-02-05T05:47:48.074Z,35.65
2019-02-05T05:50:21.318Z,34.48
2019-02-05T05:52:52.663Z,39.75
2019-02-05T05:55:24.148Z,35.98
2019-02-05T05:57:55.582Z,31.82
2019-02-05T06:00:26.990Z,39.40
2019-02-05T06:02:58.390Z,35.50
2019-02-05T06:05:29.762Z,38.83
2019-02-05T06:08:01.196Z,37.10
2019-02-05T06:10:32.614Z,32.70
2019-02-05T06:13:03.997Z,32.73
2019-02-05T06:15:35.997Z,36.60
2019-02-05T06:18:07.487Z,38.60
2019-02-05T06:20:39.279Z,36.20
2019-02-05T06:23:10.862Z,40.25
2019-02-05T06:25:42.247Z,34.10
2019-02-05T06:28:13.646Z,37.35
2019-02-05T06:30:45.129Z,33.75
2019-02-05T06:33:17.009Z,31.33
2019-02-05T06:35:48.367Z,36.50
2019-02-05T06:38:19.715Z,36.80
2019-02-05T06:40:51.475Z,44.38
2019-02-05T06:43:22.948Z,63.28
2019-02-05T06:45:54.379Z,48.15
2019-02-05T06:48:25.842Z,70.35
2019-02-05T06:50:57.295Z,63.30
2019-02-05T06:53:28.857Z,45.65
2019-02-05T06:56:02.242Z,42.53
2019-02-05T06:58:33.691Z,52.98
2019-02-05T07:01:05.104Z,47.50
2019-02-05T07:03:36.539Z,42.73
2019-02-05T07:06:08.224Z,45.67
2019-02-05T07:08:42.409Z,39.00
2019-02-05T07:11:12.654Z,45.38
2019-02-05T07:13:44.384Z,42.85
2019-02-05T07:16:15.841Z,47.67
2019-02-05T07:18:47.513Z,45.28
2019-02-05T07:21:18.970Z,47.35
2019-02-05T07:23:50.342Z,56.70
2019-02-05T07:26:22.043Z,43.52
2019-02-05T07:28:58.390Z,48.38
2019-02-05T07:31:26.948Z,36.23
2019-02-05T07:33:58.438Z,41.02
2019-02-05T07:36:30.128Z,47.30
2019-02-05T07:39:02.495Z,36.88
2019-02-05T07:41:36.027Z,37.03
2019-02-05T07:44:07.572Z,39.70
2019-02-05T07:46:39.199Z,37.85
2019-02-05T07:49:12.144Z,38.42
2019-02-05T07:51:43.614Z,31.70
2019-02-05T07:54:15.548Z,47.08
2019-02-05T07:56:46.927Z,44.30
2019-02-05T07:59:18.349Z,39.10
2019-02-05T08:01:49.754Z,42.10
2019-02-05T08:04:21.271Z,40.08
2019-02-05T08:06:52.699Z,38.45
2019-02-05T08:09:24.297Z,34.45
2019-02-05T08:11:55.758Z,43.25
2019-02-05T08:14:27.164Z,40.45
2019-02-05T08:16:58.578Z,39.90
2019-02-05T08:19:30.057Z,39.75
2019-02-05T08:22:01.494Z,38.40
2019-02-05T08:24:33.239Z,41.02
2019-02-05T08:27:04.958Z,47.17
2019-02-05T08:29:38.920Z,41.13
2019-02-05T08:32:10.379Z,37.80
2019-02-05T08:34:41.813Z,39.83
2019-02-05T08:37:16.999Z,33.78
2019-02-05T08:39:49.711Z,43.50
2019-02-05T08:42:21.754Z,49.67
2019-02-05T08:44:55.044Z,45.33
2019-02-05T08:47:26.970Z,42.65
2019-02-05T08:50:01.462Z,42.15
2019-02-05T08:52:32.958Z,45.73
2019-02-05T08:55:04.843Z,48.00
2019-02-05T08:57:36.314Z,41.77
2019-02-05T09:00:12.746Z,39.80
2019-02-05T09:02:44.392Z,39.30
2019-02-05T09:05:16.968Z,42.50
2019-02-05T09:07:48.343Z,48.70
2019-02-05T09:10:26.603Z,39.33
2019-02-05T09:12:58.196Z,42.78
2019-02-05T09:15:30.028Z,44.93
2019-02-05T09:18:01.870Z,44.80
2019-02-05T09:20:33.289Z,50.52
2019-02-05T09:23:04.796Z,47.23
2019-02-05T09:25:36.400Z,40.30
2019-02-05T09:28:07.841Z,43.58
2019-02-05T09:30:39.474Z,41.95
2019-02-05T09:33:12.667Z,47.35
2019-02-05T09:35:44.135Z,44.70
2019-02-05T09:38:15.508Z,37.40
2019-02-05T09:40:46.953Z,44.35
2019-02-05T09:43:18.782Z,46.08
2019-02-05T09:45:50.165Z,46.45
2019-02-05T09:48:21.597Z,39.33
2019-02-05T09:50:53.015Z,44.50
2019-02-05T09:53:24.521Z,40.33
2019-02-05T09:55:55.980Z,42.43
2019-02-05T09:58:27.427Z,41.83
2019-02-05T10:00:59.768Z,43.80
2019-02-05T10:03:31.170Z,38.15
2019-02-05T10:06:02.468Z,39.33
2019-02-05T10:08:33.882Z,40.33
2019-02-05T10:11:05.638Z,41.63
2019-02-05T10:13:37.173Z,40.58
2019-02-05T10:16:08.858Z,42.65
2019-02-05T10:18:40.359Z,40.23
2019-02-05T10:21:11.891Z,41.00
2019-02-05T10:23:43.402Z,39.38
2019-02-05T10:26:18.130Z,36.17
2019-02-05T10:28:48.740Z,38.78
2019-02-05T10:31:20.292Z,38.63
2019-02-05T10:33:55.758Z,45.08
2019-02-05T10:36:27.410Z,45.98
2019-02-05T10:38:59.291Z,45.17
2019-02-05T10:41:31.097Z,40.73
2019-02-05T10:44:02.578Z,40.73
2019-02-05T10:46:34.272Z,43.40
2019-02-05T10:49:05.958Z,39.15
2019-02-05T10:51:37.517Z,36.93
2019-02-05T10:54:09.159Z,40.40
2019-02-05T10:56:40.669Z,33.92
2019-02-05T10:59:12.080Z,39.73
2019-02-05T11:01:44.663Z,39.00
2019-02-05T11:04:16.507Z,39.08
2019-02-05T11:06:48.111Z,40.03
2019-02-05T11:09:23.333Z,41.18
2019-02-05T11:11:56.542Z,29.55
2019-02-05T11:14:27.871Z,36.53
2019-02-05T11:17:02.296Z,33.60
2019-02-05T11:19:37.208Z,33.53
2019-02-05T11:22:09.115Z,39.27
2019-02-05T11:24:41.040Z,38.53
2019-02-05T11:27:12.474Z,27.55
2019-02-05T11:29:44.377Z,31.35
2019-02-05T11:32:16.054Z,31.90
2019-02-05T11:34:55.965Z,34.78
2019-02-05T11:37:32.281Z,33.73
2019-02-05T11:40:03.775Z,33.00
2019-02-05T11:42:35.620Z,34.60
2019-02-05T11:45:10.121Z,26.35
2019-02-05T11:47:41.537Z,30.05
2019-02-05T11:50:14.177Z,32.30
2019-02-05T11:52:45.609Z,30.30
2019-02-05T11:55:19.523Z,32.75
2019-02-05T11:57:50.874Z,33.75
2019-02-05T12:00:54.706Z,26.12
2019-02-05T12:03:26.118Z,29.85
2019-02-05T12:05:57.850Z,24.37
2019-02-05T12:08:31.834Z,35.95
2019-02-05T12:11:04.025Z,28.77
2019-02-05T12:13:36.176Z,21.57
2019-02-05T12:16:09.994Z,28.50
2019-02-05T12:18:43.014Z,31.62
2019-02-05T12:21:14.461Z,25.82
2019-02-05T12:23:45.850Z,26.35
2019-02-05T12:26:17.361Z,27.70
2019-02-05T12:28:48.709Z,27.25
2019-02-05T12:31:20.159Z,35.13
2019-02-05T12:33:51.589Z,27.35
2019-02-05T12:36:23.031Z,26.52
2019-02-05T12:38:54.488Z,27.93
2019-02-05T12:41:26.560Z,22.77
2019-02-05T12:43:59.752Z,19.48
2019-02-05T12:46:32.322Z,21.62
2019-02-05T12:49:03.746Z,23.32
2019-02-05T12:51:35.155Z,28.98
2019-02-05T12:54:06.576Z,25.55
2019-02-05T12:56:38.111Z,25.37
2019-02-05T12:59:09.472Z,19.17
2019-02-05T13:01:40.942Z,26.68
2019-02-05T13:04:12.313Z,23.55
2019-02-05T13:06:43.863Z,22.58
2019-02-05T13:09:15.532Z,27.05
2019-02-05T13:11:46.926Z,24.02
2019-02-05T13:14:18.359Z,22.07
2019-02-05T13:16:49.791Z,20.45
2019-02-05T13:19:21.256Z,19.32
2019-02-05T13:21:52.890Z,20.77
2019-02-05T13:24:24.408Z,18.98
2019-02-05T13:26:55.811Z,31.27
2019-02-05T13:29:28.955Z,37.33
2019-02-05T13:32:00.544Z,17.40
2019-02-05T13:34:31.983Z,25.48
2019-02-05T13:37:03.375Z,22.02
2019-02-05T13:39:35.181Z,19.10
2019-02-05T13:42:06.739Z,19.90
2019-02-05T13:44:38.280Z,18.50
2019-02-05T13:47:09.822Z,17.50
2019-02-05T13:49:41.241Z,20.52
2019-02-05T13:52:12.681Z,18.77
2019-02-05T13:54:44.137Z,18.20
2019-02-05T13:57:15.581Z,20.23
2019-02-05T13:59:47.169Z,25.32
2019-02-05T14:02:18.481Z,17.37
2019-02-05T14:04:50.020Z,21.45
2019-02-05T14:07:21.426Z,20.85
2019-02-05T14:09:52.888Z,19.40
2019-02-05T14:12:24.769Z,22.65
2019-02-05T14:14:56.148Z,20.97
2019-02-05T14:17:27.454Z,24.40
2019-02-05T14:19:58.969Z,23.57
2019-02-05T14:22:30.274Z,22.00
2019-02-05T14:25:02.017Z,21.20
2019-02-05T14:27:33.500Z,21.42
2019-02-05T14:30:06.944Z,27.22
2019-02-05T14:32:38.464Z,20.75
2019-02-05T14:35:10.474Z,24.80
2019-02-05T14:37:42.232Z,23.22
2019-02-05T14:40:16.690Z,21.93
2019-02-05T14:42:48.134Z,23.85
2019-02-05T14:45:19.564Z,23.73
2019-02-05T14:47:51.093Z,20.90
2019-02-05T14:50:28.824Z,23.30
2019-02-05T14:53:00.960Z,31.95
2019-02-05T14:55:32.461Z,24.27
2019-02-05T14:58:04.069Z,31.35
2019-02-05T15:00:35.652Z,23.92
2019-02-05T15:03:09.433Z,27.77
2019-02-05T15:05:41.953Z,26.70
2019-02-05T15:08:14.741Z,23.35
2019-02-05T15:10:46.192Z,30.20
2019-02-05T15:13:18.052Z,21.05
2019-02-05T15:15:49.618Z,20.90
2019-02-05T15:18:23.341Z,19.10
2019-02-05T15:20:55.225Z,18.52
2019-02-05T15:23:26.672Z,24.20
2019-02-05T15:25:58.297Z,20.43
2019-02-05T15:28:29.731Z,21.62
2019-02-05T15:31:01.173Z,18.52
2019-02-05T15:34:07.590Z,20.08
2019-02-05T15:36:41.922Z,23.38
2019-02-05T15:39:15.632Z,18.80
2019-02-05T15:41:47.142Z,25.15
2019-02-05T15:44:18.814Z,18.40
2019-02-05T15:46:50.381Z,19.70
2019-02-05T15:49:21.738Z,21.62
2019-02-05T15:51:53.089Z,24.92
2019-02-05T15:54:24.558Z,20.88
2019-02-05T15:56:56.204Z,17.40
2019-02-05T15:59:27.628Z,25.20
2019-02-05T16:02:05.809Z,31.85
2019-02-05T16:04:32.167Z,21.10
2019-02-05T16:07:03.580Z,20.97
2019-02-05T16:09:35.419Z,21.02
2019-02-05T16:12:06.921Z,20.25
2019-02-05T16:14:38.283Z,20.27
2019-02-05T16:17:09.743Z,23.02
2019-02-05T16:19:41.416Z,19.87
2019-02-05T16:22:13.458Z,20.48
2019-02-05T16:24:44.820Z,19.85
2019-02-05T16:27:16.287Z,24.52
2019-02-05T16:29:47.737Z,20.35
2019-02-05T16:32:19.163Z,22.45
2019-02-05T16:34:50.871Z,16.00
2019-02-05T16:37:22.267Z,19.73
2019-02-05T16:39:53.715Z,20.82
2019-02-05T16:42:25.165Z,25.85
2019-02-05T16:44:56.618Z,24.27
2019-02-05T16:47:28.418Z,23.60
2019-02-05T16:50:00.214Z,21.10
2019-02-05T16:52:33.739Z,19.00
2019-02-05T16:55:06.020Z,21.65
2019-02-05T16:57:37.770Z,30.35
2019-02-05T17:00:20.920Z,23.67
2019-02-05T17:02:53.310Z,41.48
2019-02-05T17:05:29.070Z,20.45
2019-02-05T17:08:00.927Z,25.02
2019-02-05T17:10:32.659Z,23.75
2019-02-05T17:13:05.703Z,21.93
2019-02-05T17:15:37.422Z,22.42
2019-02-05T17:18:08.865Z,31.10
2019-02-05T17:20:41.873Z,27.30
2019-02-05T17:23:13.443Z,31.77
2019-02-05T17:25:45.131Z,28.50
2019-02-05T17:28:16.623Z,30.80
2019-02-05T17:30:48.067Z,31.73
2019-02-05T17:33:19.438Z,29.50
2019-02-05T17:35:51.105Z,24.10
2019-02-05T17:38:25.624Z,25.65
2019-02-05T17:40:57.079Z,27.55
2019-02-05T17:43:28.767Z,26.48
2019-02-05T17:46:00.488Z,27.98
2019-02-05T17:48:32.268Z,23.77
2019-02-05T17:51:04.128Z,27.90
2019-02-05T17:53:39.151Z,33.10
2019-02-05T17:56:13.762Z,26.50
2019-02-05T17:58:45.760Z,28.98
2019-02-05T18:01:19.953Z,32.28
2019-02-05T18:03:51.859Z,29.27
2019-02-05T18:06:23.780Z,26.97
2019-02-05T18:08:55.563Z,28.75
2019-02-05T18:11:34.793Z,28.47
2019-02-05T18:14:13.298Z,31.25
2019-02-05T18:16:45.450Z,44.00
2019-02-05T18:19:18.119Z,33.67
2019-02-05T18:21:49.619Z,37.25
2019-02-05T18:24:23.114Z,39.18
2019-02-05T18:26:55.943Z,32.95
2019-02-05T18:29:27.642Z,39.18
2019-02-05T18:31:59.122Z,32.38
2019-02-05T18:34:35.809Z,32.75
2019-02-05T18:37:07.513Z,31.52
2019-02-05T18:39:40.143Z,34.05
2019-02-05T18:42:12.291Z,27.13
2019-02-05T18:44:48.223Z,26.68
2019-02-05T18:47:23.709Z,26.80
2019-02-05T18:49:58.638Z,31.70
2019-02-05T18:52:30.819Z,30.82
2019-02-05T18:55:04.691Z,28.75
2019-02-05T18:57:36.339Z,41.92
2019-02-05T19:00:14.677Z,37.42
2019-02-05T19:02:47.441Z,31.73
2019-02-05T19:05:19.104Z,38.83
2019-02-05T19:07:50.540Z,30.02
2019-02-05T19:10:24.212Z,38.90
2019-02-05T19:12:56.079Z,29.48
2019-02-05T19:15:33.088Z,36.00
2019-02-05T19:18:05.613Z,30.32
2019-02-05T19:20:37.145Z,44.33
2019-02-05T19:23:11.811Z,36.45
2019-02-05T19:26:04.897Z,32.60
2019-02-05T19:28:40.835Z,29.27
2019-02-05T19:31:34.366Z,31.52
2019-02-05T19:34:06.783Z,29.60
2019-02-05T19:36:39.278Z,34.18
2019-02-05T19:39:11.279Z,37.03
2019-02-05T19:41:43.184Z,37.38
2019-02-05T19:44:16.857Z,31.12
2019-02-05T19:46:53.503Z,35.63
2019-02-05T19:49:31.400Z,32.65
2019-02-05T19:52:03.342Z,39.63
2019-02-05T19:54:35.861Z,35.92
2019-02-05T19:57:07.795Z,26.73
2019-02-05T19:59:40.432Z,31.12
2019-02-05T20:02:12.621Z,32.80
2019-02-05T20:04:44.620Z,35.33
2019-02-05T20:07:19.728Z,32.98
2019-02-05T20:09:52.348Z,27.73
2019-02-05T20:12:26.789Z,32.08
2019-02-05T20:15:03.714Z,29.45
2019-02-05T20:17:40.369Z,34.23
2019-02-05T20:20:17.386Z,31.27
2019-02-05T20:22:50.107Z,29.02
2019-02-05T20:25:26.253Z,34.95
2019-02-05T20:27:58.547Z,29.70
2019-02-05T20:30:31.384Z,33.98
2019-02-05T20:33:14.760Z,37.58
2019-02-05T20:35:56.247Z,34.08
2019-02-05T20:38:29.479Z,36.68
2019-02-05T20:41:08.732Z,38.53
2019-02-05T20:43:42.275Z,31.07
2019-02-05T20:46:37.065Z,24.57
2019-02-05T20:49:10.657Z,30.95
2019-02-05T20:51:44.133Z,29.42
2019-02-05T20:54:22.999Z,25.68
2019-02-05T20:56:55.403Z,25.45
2019-02-05T20:59:30.222Z,27.42
2019-02-05T21:02:01.102Z,30.27
2019-02-05T21:04:35.557Z,28.67
2019-02-05T21:07:11.825Z,25.75
2019-02-05T21:09:45.996Z,31.87
2019-02-05T21:12:20.709Z,26.80
2019-02-05T21:14:56.634Z,37.95
2019-02-05T21:17:29.699Z,27.87
2019-02-05T21:20:04.408Z,24.52
2019-02-05T21:22:37.016Z,29.05
2019-02-05T21:25:13.464Z,34.70
2019-02-05T21:27:50.718Z,29.27
2019-02-05T21:30:33.045Z,28.42
2019-02-05T21:33:10.253Z,29.42
2019-02-05T21:35:50.391Z,33.00
2019-02-05T21:38:27.285Z,44.23
2019-02-05T21:41:06.433Z,37.25
2019-02-05T21:43:48.946Z,41.85
2019-02-05T21:46:26.781Z,38.15
2019-02-05T21:49:12.448Z,38.63
2019-02-05T21:51:48.675Z,27.80
2019-02-05T21:54:33.394Z,28.67
2019-02-05T21:57:16.452Z,28.98
2019-02-05T21:59:55.084Z,33.40
2019-02-05T22:02:36.507Z,35.60
2019-02-05T22:05:23.157Z,29.50
2019-02-05T22:08:01.948Z,29.90
2019-02-05T22:10:43.315Z,37.38
2019-02-05T22:13:27.544Z,37.90
2019-02-05T22:16:01.371Z,35.50
2019-02-05T22:18:41.540Z,38.78
2019-02-05T22:21:24.325Z,32.20
2019-02-05T22:24:10.712Z,31.73
2019-02-05T22:26:55.910Z,33.18
2019-02-05T22:29:33.734Z,32.48
2019-02-05T22:32:09.919Z,32.05
2019-02-05T22:34:53.725Z,42.35
2019-02-05T22:37:32.146Z,42.58
2019-02-05T22:40:11.212Z,34.67
2019-02-05T22:42:46.032Z,34.83
2019-02-05T22:45:27.999Z,46.68
2019-02-05T22:48:04.463Z,46.98
2019-02-05T22:50:43.627Z,55.23
2019-02-05T22:53:26.625Z,53.92
2019-02-05T22:56:07.562Z,51.35
2019-02-05T22:58:42.759Z,49.80
2019-02-05T23:02:05.525Z,50.43
2019-02-05T23:05:31.775Z,52.60
2019-02-05T23:08:15.665Z,48.63
2019-02-05T23:11:46.350Z,44.77
2019-02-05T23:14:36.100Z,44.48
2019-02-05T23:17:13.024Z,52.50
2019-02-05T23:19:50.379Z,49.35
2019-02-05T23:22:32.943Z,57.70
2019-02-05T23:25:08.464Z,47.15
2019-02-05T23:27:46.162Z,55.98
2019-02-05T23:30:29.274Z,54.25
2019-02-05T23:33:11.366Z,52.75
2019-02-05T23:35:47.719Z,50.63
2019-02-05T23:38:30.095Z,52.48
2019-02-05T23:41:16.814Z,49.40
2019-02-05T23:43:59.272Z,56.28
2019-02-05T23:46:38.936Z,58.68
2019-02-05T23:49:14.768Z,61.15
2019-02-05T23:51:46.978Z,58.65
2019-02-05T23:54:24.979Z,51.25
2019-02-05T23:57:01.192Z,58.52
2019-02-05T23:59:43.014Z,56.33
